Time;durP1;ratioP1;P1;durP2;ratioP2;P2;SDS_P1;SDS_P2;PMS_P1;PMS_P2;Temp;Humidity;BMP_temperature;BMP_pressure;BME280_temperature;BME280_humidity;BME280_pressure;Samples;Min_cycle;Max_cycle;Signal;HPM_P1;HPM_P2
2024/01/04 00:01:35;;;;;;;0.50;0.40;;;6.50;99.90;;;;;;5079301;28;20475;-81
2024/01/04 00:04:02;;;;;;;3.03;0.57;;;6.50;99.90;;;;;;5076475;28;20444;-81
2024/01/04 00:06:28;;;;;;;0.30;0.27;;;6.50;99.90;;;;;;5075001;28;20563;-81
2024/01/04 00:08:55;;;;;;;3.73;0.73;;;6.50;99.90;;;;;;5075766;28;20464;-81
2024/01/04 00:11:22;;;;;;;3.07;0.40;;;6.40;99.90;;;;;;5074759;28;20437;-81
2024/01/04 00:13:49;;;;;;;0.50;0.30;;;6.40;99.90;;;;;;5074495;28;21013;-81
2024/01/04 00:16:19;;;;;;;0.30;0.20;;;6.40;99.90;;;;;;5074424;28;20460;-81
2024/01/04 00:18:45;;;;;;;0.30;0.30;;;6.40;99.90;;;;;;5075798;28;20472;-81
2024/01/04 00:21:14;;;;;;;0.30;0.30;;;6.30;99.90;;;;;;5076044;28;20843;-81
2024/01/04 00:23:40;;;;;;;0.30;0.30;;;6.40;99.90;;;;;;5077234;28;20869;-81
2024/01/04 00:26:07;;;;;;;0.30;0.27;;;6.40;99.90;;;;;;5076467;28;20445;-81
2024/01/04 00:28:34;;;;;;;0.30;0.20;;;6.40;99.90;;;;;;5075729;28;20829;-82
2024/01/04 00:31:00;;;;;;;0.30;0.20;;;6.40;99.90;;;;;;5075337;28;20444;-81
2024/01/04 00:33:29;;;;;;;0.30;0.30;;;6.50;99.90;;;;;;5074944;28;20934;-81
2024/01/04 00:35:55;;;;;;;0.30;0.20;;;6.40;99.90;;;;;;5075293;28;20448;-81
2024/01/04 00:38:22;;;;;;;0.50;0.47;;;6.40;99.90;;;;;;5074937;28;20908;-81
2024/01/04 00:40:49;;;;;;;0.30;0.20;;;6.40;99.90;;;;;;5075249;28;20455;-81
2024/01/04 00:43:15;;;;;;;0.60;0.40;;;6.40;99.90;;;;;;5075377;28;20443;-81
2024/01/04 00:45:42;;;;;;;0.70;0.30;;;6.40;99.90;;;;;;5075402;28;20445;-81
2024/01/04 00:48:09;;;;;;;1.07;0.50;;;6.40;99.90;;;;;;5074828;28;20472;-81
2024/01/04 00:50:37;;;;;;;0.30;0.30;;;6.40;99.90;;;;;;5075556;28;20448;-82
2024/01/04 00:53:04;;;;;;;0.30;0.30;;;6.40;99.90;;;;;;5075050;28;20448;-81
2024/01/04 00:55:30;;;;;;;0.30;0.20;;;6.40;99.90;;;;;;5075464;28;20481;-81
2024/01/04 00:57:57;;;;;;;0.63;0.40;;;6.40;99.90;;;;;;5075529;28;20467;-81
2024/01/04 01:00:24;;;;;;;0.30;0.30;;;6.50;99.90;;;;;;5075706;28;20441;-82
2024/01/04 01:02:50;;;;;;;0.43;0.40;;;6.50;99.90;;;;;;5075373;28;20440;-81
2024/01/04 01:05:17;;;;;;;0.30;0.20;;;6.40;99.90;;;;;;5076367;28;20473;-81
2024/01/04 01:07:45;;;;;;;0.30;0.20;;;6.50;99.90;;;;;;5077540;28;20480;-82
2024/01/04 01:10:12;;;;;;;0.30;0.30;;;6.40;99.90;;;;;;5076385;28;20452;-81
2024/01/04 01:12:39;;;;;;;0.30;0.20;;;6.40;99.90;;;;;;5077502;28;20451;-82
2024/01/04 01:15:06;;;;;;;0.30;0.30;;;6.40;99.90;;;;;;5075863;28;20941;-81
2024/01/04 01:17:33;;;;;;;0.30;0.23;;;6.40;99.90;;;;;;5076558;28;20996;-82
2024/01/04 01:20:00;;;;;;;0.30;0.30;;;6.40;99.90;;;;;;5076198;28;20441;-82
2024/01/04 01:22:27;;;;;;;0.40;0.30;;;6.40;99.90;;;;;;5075705;28;20497;-82
2024/01/04 01:24:55;;;;;;;0.30;0.20;;;6.40;99.90;;;;;;5075141;28;20440;-81
2024/01/04 01:27:22;;;;;;;0.73;0.40;;;6.40;99.90;;;;;;5074777;28;20810;-81
2024/01/04 01:29:48;;;;;;;1.13;0.60;;;6.30;99.90;;;;;;5074303;28;20441;-81
2024/01/04 01:32:15;;;;;;;0.30;0.20;;;6.40;99.90;;;;;;5074181;28;20445;-81
2024/01/04 01:34:43;;;;;;;0.40;0.30;;;6.30;99.90;;;;;;5074070;28;20880;-81
2024/01/04 01:37:11;;;;;;;0.40;0.40;;;6.20;99.90;;;;;;5075053;28;20444;-82
2024/01/04 01:39:37;;;;;;;0.30;0.27;;;6.20;99.90;;;;;;5075470;28;20539;-82
2024/01/04 01:42:06;;;;;;;0.37;0.37;;;6.30;99.90;;;;;;5074947;28;20440;-82
2024/01/04 01:44:32;;;;;;;0.40;0.30;;;6.30;99.90;;;;;;5078685;28;20452;-82
2024/01/04 01:46:59;;;;;;;0.30;0.20;;;6.40;99.90;;;;;;5078919;28;20440;-82
2024/01/04 01:49:26;;;;;;;0.30;0.30;;;6.30;99.90;;;;;;5078720;28;20464;-81
2024/01/04 01:51:53;;;;;;;0.30;0.20;;;6.30;99.90;;;;;;5078623;28;20937;-82
2024/01/04 01:54:21;;;;;;;0.30;0.20;;;6.30;99.90;;;;;;5079004;28;20534;-82
2024/01/04 01:56:47;;;;;;;0.30;0.20;;;6.30;99.90;;;;;;5078059;28;20439;-81
2024/01/04 01:59:16;;;;;;;0.33;0.27;;;6.30;99.90;;;;;;5078549;28;20898;-81
2024/01/04 02:01:43;;;;;;;0.60;0.30;;;6.30;99.90;;;;;;5090807;28;20449;-81
2024/01/04 02:04:09;;;;;;;0.30;0.20;;;6.20;99.90;;;;;;5076813;28;20442;-81
2024/01/04 02:06:36;;;;;;;0.30;0.30;;;6.10;99.90;;;;;;5076423;28;20534;-81
2024/01/04 02:09:03;;;;;;;0.30;0.30;;;6.10;99.90;;;;;;5076482;28;20460;-81
2024/01/04 02:11:30;;;;;;;4.80;0.40;;;6.00;99.90;;;;;;5076891;28;20945;-81
2024/01/04 02:13:56;;;;;;;3.60;0.30;;;6.00;99.90;;;;;;5076814;28;20448;-81
2024/01/04 02:16:24;;;;;;;0.30;0.20;;;6.00;99.90;;;;;;5076414;28;20470;-81
2024/01/04 02:18:51;;;;;;;0.30;0.30;;;5.90;99.90;;;;;;5076446;28;20468;-81
2024/01/04 02:21:18;;;;;;;0.33;0.30;;;5.90;99.90;;;;;;5076917;28;20966;-81
2024/01/04 02:23:46;;;;;;;0.30;0.30;;;5.90;99.90;;;;;;5076885;28;20441;-82
2024/01/04 02:26:13;;;;;;;0.30;0.20;;;5.90;99.90;;;;;;5076852;28;20810;-81
2024/01/04 02:28:39;;;;;;;0.60;0.30;;;5.90;99.90;;;;;;5076507;28;20543;-81
2024/01/04 02:31:06;;;;;;;0.30;0.30;;;5.90;99.90;;;;;;5076889;28;20445;-81
2024/01/04 02:33:33;;;;;;;0.30;0.20;;;6.00;99.90;;;;;;5076666;28;20448;-81
2024/01/04 02:35:59;;;;;;;0.30;0.30;;;6.00;99.90;;;;;;5076333;28;20476;-81
2024/01/04 02:38:26;;;;;;;0.40;0.40;;;5.90;99.90;;;;;;5076364;28;20456;-81
2024/01/04 02:40:54;;;;;;;0.30;0.30;;;5.90;99.90;;;;;;5076490;28;20452;-81
2024/01/04 02:43:22;;;;;;;0.30;0.30;;;5.80;99.90;;;;;;5076380;28;20440;-81
2024/01/04 02:45:49;;;;;;;0.30;0.20;;;5.80;99.90;;;;;;5076515;28;20995;-82
2024/01/04 02:48:15;;;;;;;0.30;0.20;;;5.80;99.90;;;;;;5076561;28;20508;-81
2024/01/04 02:50:42;;;;;;;0.30;0.20;;;5.80;99.90;;;;;;5076293;28;20433;-81
2024/01/04 02:53:09;;;;;;;0.30;0.20;;;5.80;99.90;;;;;;5075908;28;20445;-82
2024/01/04 02:55:36;;;;;;;0.30;0.20;;;5.80;99.90;;;;;;5076106;28;20614;-81
2024/01/04 02:58:04;;;;;;;0.30;0.30;;;5.60;99.90;;;;;;5076373;28;20464;-81
2024/01/04 03:00:31;;;;;;;0.30;0.30;;;5.60;99.90;;;;;;5076417;28;20437;-81
2024/01/04 03:02:57;;;;;;;0.30;0.30;;;5.60;99.90;;;;;;5076165;28;20452;-81
2024/01/04 03:05:24;;;;;;;0.30;0.20;;;5.50;99.90;;;;;;5075792;28;20488;-80
2024/01/04 03:07:51;;;;;;;0.30;0.20;;;5.60;99.90;;;;;;5075958;28;20473;-81
2024/01/04 03:10:18;;;;;;;0.40;0.30;;;5.60;99.90;;;;;;5076157;28;20443;-81
2024/01/04 03:12:44;;;;;;;0.40;0.30;;;5.50;99.90;;;;;;5076020;28;20968;-81
2024/01/04 03:15:12;;;;;;;0.30;0.30;;;5.60;99.90;;;;;;5076109;28;21074;-81
2024/01/04 03:17:39;;;;;;;0.30;0.20;;;5.60;99.90;;;;;;5075962;28;20461;-81
2024/01/04 03:20:07;;;;;;;0.30;0.20;;;5.60;99.90;;;;;;5076067;28;20445;-81
2024/01/04 03:22:34;;;;;;;0.60;0.30;;;5.60;99.90;;;;;;5076196;28;20445;-81
2024/01/04 03:25:01;;;;;;;0.30;0.20;;;5.60;99.90;;;;;;5075736;28;20440;-81
2024/01/04 03:27:27;;;;;;;0.30;0.30;;;5.60;99.90;;;;;;5075841;28;20465;-81
2024/01/04 03:29:55;;;;;;;0.30;0.20;;;5.60;99.90;;;;;;5075883;28;20444;-81
2024/01/04 03:32:23;;;;;;;0.30;0.20;;;5.60;99.90;;;;;;5075865;28;20441;-81
2024/01/04 03:34:50;;;;;;;0.30;0.20;;;5.60;99.90;;;;;;5076071;28;20484;-81
2024/01/04 03:37:17;;;;;;;0.30;0.30;;;5.60;99.90;;;;;;5076151;28;20445;-81
2024/01/04 03:39:44;;;;;;;0.30;0.20;;;5.60;99.90;;;;;;5076061;28;20445;-81
2024/01/04 03:42:10;;;;;;;0.30;0.20;;;5.60;99.90;;;;;;5076146;28;20449;-81
2024/01/04 03:44:37;;;;;;;0.30;0.20;;;5.60;99.90;;;;;;5075818;28;20440;-81
2024/01/04 03:47:04;;;;;;;2.57;0.33;;;5.60;99.90;;;;;;5075993;28;20498;-81
2024/01/04 03:49:33;;;;;;;0.30;0.20;;;5.60;99.90;;;;;;5076313;28;20541;-81
2024/01/04 03:51:59;;;;;;;0.30;0.20;;;5.60;99.90;;;;;;5076097;28;20441;-81
2024/01/04 03:54:26;;;;;;;0.30;0.23;;;5.70;99.90;;;;;;5075661;28;20441;-81
2024/01/04 03:56:53;;;;;;;0.30;0.27;;;5.70;99.90;;;;;;5075533;28;20938;-81
2024/01/04 03:59:20;;;;;;;0.30;0.20;;;5.70;99.90;;;;;;5075233;28;20449;-81
2024/01/04 04:01:47;;;;;;;0.40;0.30;;;5.70;99.90;;;;;;5075600;28;20437;-81
2024/01/04 04:04:14;;;;;;;0.30;0.27;;;5.70;99.90;;;;;;5075181;28;20436;-81
2024/01/04 04:06:42;;;;;;;0.30;0.20;;;5.80;99.90;;;;;;5074076;28;20473;-81
2024/01/04 04:09:09;;;;;;;0.30;0.20;;;5.90;99.90;;;;;;5075596;28;20461;-81
2024/01/04 04:11:36;;;;;;;0.30;0.20;;;5.90;99.90;;;;;;5075579;28;20444;-81
2024/01/04 04:14:03;;;;;;;5.20;0.40;;;5.90;99.90;;;;;;5085055;28;20421;-80
2024/01/04 04:16:29;;;;;;;0.30;0.30;;;6.00;99.90;;;;;;5080077;28;20468;-81
2024/01/04 04:18:56;;;;;;;0.30;0.20;;;6.00;99.90;;;;;;5074509;28;20465;-81
2024/01/04 04:21:24;;;;;;;2.77;0.30;;;6.00;99.90;;;;;;5074969;28;20437;-81
2024/01/04 04:23:52;;;;;;;0.30;0.27;;;6.00;99.90;;;;;;5074759;28;20449;-81
2024/01/04 04:26:20;;;;;;;5.30;0.30;;;6.10;99.90;;;;;;5074306;28;20444;-81
2024/01/04 04:28:47;;;;;;;0.40;0.30;;;6.10;99.90;;;;;;5074576;28;20475;-81
2024/01/04 04:31:14;;;;;;;0.30;0.20;;;6.10;99.90;;;;;;5074752;28;20440;-81
2024/01/04 04:33:41;;;;;;;0.30;0.30;;;6.20;99.90;;;;;;5074589;28;21010;-81
2024/01/04 04:36:08;;;;;;;0.30;0.30;;;6.10;99.90;;;;;;5074300;28;21036;-81
2024/01/04 04:38:35;;;;;;;0.30;0.30;;;6.10;99.90;;;;;;5074484;28;20461;-81
2024/01/04 04:41:04;;;;;;;0.30;0.20;;;6.20;99.90;;;;;;5075149;28;20445;-81
2024/01/04 04:43:31;;;;;;;2.60;0.40;;;6.10;99.90;;;;;;5074455;28;20444;-81
2024/01/04 04:45:58;;;;;;;2.10;0.40;;;6.10;99.90;;;;;;5074499;28;20444;-81
2024/01/04 04:48:25;;;;;;;1.00;0.30;;;6.00;99.90;;;;;;5074399;28;20464;-81
2024/01/04 04:50:54;;;;;;;0.53;0.40;;;6.00;99.90;;;;;;5074344;28;20443;-81
2024/01/04 04:53:21;;;;;;;0.30;0.20;;;6.00;99.90;;;;;;5074404;28;20449;-81
2024/01/04 04:55:47;;;;;;;9.07;0.43;;;6.00;99.90;;;;;;5074244;28;20487;-81
2024/01/04 04:58:15;;;;;;;0.40;0.40;;;6.10;99.90;;;;;;5073842;28;20989;-81
2024/01/04 05:00:42;;;;;;;0.30;0.30;;;6.00;99.90;;;;;;5074293;28;20449;-81
2024/01/04 05:03:09;;;;;;;0.30;0.20;;;6.00;99.90;;;;;;5073796;28;20433;-81
2024/01/04 05:05:35;;;;;;;0.30;0.27;;;6.00;99.90;;;;;;5073943;28;20465;-81
2024/01/04 05:08:03;;;;;;;0.40;0.40;;;6.00;99.90;;;;;;5073832;28;20465;-81
2024/01/04 05:10:30;;;;;;;0.30;0.30;;;6.00;99.90;;;;;;5074642;28;20497;-81
2024/01/04 05:12:58;;;;;;;0.30;0.30;;;6.00;99.90;;;;;;5073969;28;20459;-81
2024/01/04 05:15:26;;;;;;;0.30;0.30;;;6.00;99.90;;;;;;5073999;28;20483;-81
2024/01/04 05:17:53;;;;;;;0.30;0.30;;;6.10;99.90;;;;;;5073218;28;20977;-81
2024/01/04 05:20:20;;;;;;;0.30;0.20;;;6.00;99.90;;;;;;5074281;28;20456;-81
2024/01/04 05:22:47;;;;;;;0.30;0.30;;;6.00;99.90;;;;;;5073933;28;20436;-81
2024/01/04 05:25:16;;;;;;;0.60;0.40;;;6.00;99.90;;;;;;5074112;28;20515;-81
2024/01/04 05:27:42;;;;;;;0.30;0.20;;;6.00;99.90;;;;;;5074036;28;20834;-81
2024/01/04 05:30:10;;;;;;;0.50;0.30;;;6.00;99.90;;;;;;5073971;28;20433;-81
2024/01/04 05:32:38;;;;;;;0.30;0.30;;;6.00;99.90;;;;;;5074178;28;20445;-81
2024/01/04 05:35:06;;;;;;;0.30;0.20;;;6.00;99.90;;;;;;5073824;28;20444;-81
2024/01/04 05:37:33;;;;;;;0.30;0.30;;;6.00;99.90;;;;;;5073806;28;20457;-81
2024/01/04 05:40:00;;;;;;;1.37;0.30;;;6.00;99.90;;;;;;5074094;28;21051;-81
2024/01/04 05:42:26;;;;;;;0.30;0.30;;;5.90;99.90;;;;;;5073817;28;20804;-81
2024/01/04 05:44:53;;;;;;;0.30;0.20;;;5.90;99.90;;;;;;5074116;28;20537;-81
2024/01/04 05:47:20;;;;;;;0.37;0.30;;;5.90;99.90;;;;;;5074058;28;20452;-81
2024/01/04 05:49:48;;;;;;;0.30;0.20;;;5.90;99.90;;;;;;5074222;28;20440;-81
2024/01/04 05:52:15;;;;;;;0.40;0.40;;;5.90;99.90;;;;;;5073740;28;20954;-81
2024/01/04 05:54:42;;;;;;;0.30;0.20;;;5.90;99.90;;;;;;5073797;28;20491;-81
2024/01/04 05:57:08;;;;;;;1.70;0.33;;;5.90;99.90;;;;;;5073532;28;20488;-81
2024/01/04 05:59:35;;;;;;;0.80;0.40;;;5.90;99.90;;;;;;5073735;28;20827;-81
2024/01/04 06:02:02;;;;;;;0.30;0.20;;;6.00;99.90;;;;;;5074730;28;20456;-81
2024/01/04 06:04:28;;;;;;;0.30;0.20;;;5.90;99.90;;;;;;5074452;28;20949;-81
2024/01/04 06:06:56;;;;;;;0.30;0.20;;;5.90;99.90;;;;;;5074224;28;20571;-81
2024/01/04 06:09:23;;;;;;;0.30;0.20;;;5.90;99.90;;;;;;5074856;28;20461;-81
2024/01/04 06:11:51;;;;;;;0.53;0.30;;;6.00;99.90;;;;;;5074767;28;20444;-81
2024/01/04 06:14:18;;;;;;;0.40;0.40;;;6.00;99.90;;;;;;5074476;28;20460;-81
2024/01/04 06:16:45;;;;;;;0.30;0.20;;;6.00;99.90;;;;;;5074373;28;20476;-81
2024/01/04 06:19:12;;;;;;;0.30;0.30;;;6.00;99.90;;;;;;5074092;28;20457;-81
2024/01/04 06:21:39;;;;;;;1.33;0.30;;;6.10;99.90;;;;;;5074955;28;20448;-81
2024/01/04 06:24:07;;;;;;;0.30;0.20;;;6.00;99.90;;;;;;5077643;28;20440;-81
2024/01/04 06:26:34;;;;;;;0.30;0.30;;;6.00;99.90;;;;;;5072712;28;20451;-81
2024/01/04 06:29:01;;;;;;;0.30;0.30;;;6.00;99.90;;;;;;5072930;28;20456;-81
2024/01/04 06:31:27;;;;;;;0.33;0.30;;;6.00;99.90;;;;;;5075552;28;20956;-81
2024/01/04 06:33:54;;;;;;;0.30;0.20;;;6.00;99.90;;;;;;5076594;28;20452;-81
2024/01/04 06:36:21;;;;;;;0.97;0.50;;;6.00;99.90;;;;;;5076480;28;20484;-81
2024/01/04 06:38:47;;;;;;;0.30;0.30;;;5.90;99.90;;;;;;5076478;28;20475;-81
2024/01/04 06:41:15;;;;;;;0.30;0.20;;;5.90;99.90;;;;;;5076388;28;20445;-81
2024/01/04 06:43:42;;;;;;;0.50;0.50;;;5.90;99.90;;;;;;5076055;28;20976;-81
2024/01/04 06:46:09;;;;;;;0.37;0.37;;;5.80;99.90;;;;;;5076373;28;20448;-81
2024/01/04 06:48:35;;;;;;;0.40;0.30;;;5.70;99.90;;;;;;5076229;28;20476;-81
2024/01/04 06:51:02;;;;;;;0.30;0.30;;;5.80;99.90;;;;;;5076124;28;20440;-81
2024/01/04 06:53:29;;;;;;;0.50;0.50;;;5.70;99.90;;;;;;5076998;28;20445;-81
2024/01/04 06:55:56;;;;;;;0.40;0.30;;;5.70;99.90;;;;;;5076477;28;20480;-81
2024/01/04 06:58:24;;;;;;;0.30;0.30;;;5.70;99.90;;;;;;5076409;28;20978;-81
2024/01/04 07:00:52;;;;;;;0.30;0.23;;;5.60;99.90;;;;;;5076400;28;20453;-80
2024/01/04 07:03:19;;;;;;;0.30;0.30;;;5.70;99.90;;;;;;5076125;28;20889;-81
2024/01/04 07:05:46;;;;;;;0.30;0.20;;;5.70;99.90;;;;;;5076576;28;20480;-81
2024/01/04 07:08:13;;;;;;;0.47;0.43;;;5.70;99.90;;;;;;5076972;28;20457;-81
2024/01/04 07:10:40;;;;;;;0.30;0.20;;;5.70;99.90;;;;;;5076949;28;20459;-81
2024/01/04 07:13:07;;;;;;;0.30;0.30;;;5.70;99.90;;;;;;5076536;28;20479;-81
2024/01/04 07:15:35;;;;;;;0.80;0.73;;;5.70;99.90;;;;;;5075931;28;20958;-81
2024/01/04 07:18:02;;;;;;;0.30;0.27;;;5.70;99.90;;;;;;5075986;28;21000;-81
2024/01/04 07:20:29;;;;;;;0.30;0.30;;;5.60;99.90;;;;;;5076677;28;20444;-81
2024/01/04 07:22:55;;;;;;;0.30;0.20;;;5.70;99.90;;;;;;5076535;28;20433;-81
2024/01/04 07:25:23;;;;;;;1.37;0.47;;;5.70;99.90;;;;;;5076321;28;20441;-81
2024/01/04 07:27:50;;;;;;;0.30;0.30;;;5.80;99.90;;;;;;5077404;28;20518;-81
2024/01/04 07:30:16;;;;;;;0.30;0.20;;;5.70;99.90;;;;;;5078160;28;20448;-81
2024/01/04 07:32:44;;;;;;;0.30;0.20;;;5.80;99.90;;;;;;5077296;28;20445;-81
2024/01/04 07:35:12;;;;;;;0.30;0.30;;;5.70;99.90;;;;;;5077404;28;20870;-82
2024/01/04 07:37:39;;;;;;;0.30;0.30;;;5.80;99.90;;;;;;5076945;28;20901;-81
2024/01/04 07:40:07;;;;;;;0.97;0.50;;;5.80;99.90;;;;;;5076699;28;20486;-81
2024/01/04 07:42:34;;;;;;;0.30;0.30;;;5.80;99.90;;;;;;5075987;28;20504;-81
2024/01/04 07:45:01;;;;;;;2.00;0.30;;;5.80;99.90;;;;;;5075918;28;20451;-81
2024/01/04 07:47:27;;;;;;;0.30;0.20;;;5.80;99.90;;;;;;5076355;28;20472;-81
2024/01/04 07:49:55;;;;;;;1.57;0.30;;;5.90;99.90;;;;;;5077601;28;20451;-81
2024/01/04 07:52:22;;;;;;;0.60;0.60;;;5.80;99.90;;;;;;5076962;28;20449;-82
2024/01/04 07:54:49;;;;;;;3.80;0.37;;;5.80;99.90;;;;;;5076013;28;20828;-81
2024/01/04 07:57:15;;;;;;;0.30;0.20;;;5.80;99.90;;;;;;5076109;28;20484;-81
2024/01/04 07:59:42;;;;;;;0.30;0.30;;;5.80;99.90;;;;;;5076366;28;20452;-81
2024/01/04 08:02:09;;;;;;;0.60;0.53;;;5.60;99.90;;;;;;5076648;28;20447;-81
2024/01/04 08:04:35;;;;;;;0.30;0.20;;;5.60;99.90;;;;;;5076467;28;20440;-81
2024/01/04 08:07:04;;;;;;;0.30;0.30;;;5.50;99.90;;;;;;5076829;28;20484;-81
2024/01/04 08:09:30;;;;;;;0.30;0.30;;;5.50;99.90;;;;;;5077209;28;21004;-81
2024/01/04 08:11:57;;;;;;;0.40;0.30;;;5.40;99.90;;;;;;5079962;28;20453;-81
2024/01/04 08:14:24;;;;;;;0.30;0.20;;;5.50;99.90;;;;;;5076482;28;20425;-83
2024/01/04 08:16:50;;;;;;;0.30;0.30;;;5.40;99.90;;;;;;5076195;28;20485;-82
2024/01/04 08:19:17;;;;;;;5.30;0.30;;;5.40;99.90;;;;;;5075568;28;20464;-81
2024/01/04 08:21:44;;;;;;;0.40;0.30;;;5.50;99.90;;;;;;5075799;28;20453;-82
2024/01/04 08:24:12;;;;;;;1.90;0.30;;;5.50;99.90;;;;;;5076197;28;20622;-81
2024/01/04 08:26:42;;;;;;;1.70;0.60;;;5.50;99.90;;;;;;5076057;28;20961;-81
2024/01/04 08:29:09;;;;;;;2.73;0.40;;;5.50;99.90;;;;;;5076238;28;20445;-81
2024/01/04 08:31:36;;;;;;;0.40;0.40;;;5.50;99.90;;;;;;5087644;28;20421;-81
2024/01/04 08:34:03;;;;;;;0.30;0.30;;;5.60;99.90;;;;;;5084894;28;20438;-80
2024/01/04 08:36:30;;;;;;;0.30;0.30;;;5.70;99.90;;;;;;5074193;28;20477;-81
2024/01/04 08:38:56;;;;;;;0.30;0.30;;;5.70;99.90;;;;;;5074240;28;20511;-81
2024/01/04 08:41:24;;;;;;;0.30;0.20;;;5.70;99.90;;;;;;5074147;28;20818;-81
2024/01/04 08:43:51;;;;;;;0.30;0.20;;;5.70;99.90;;;;;;5074155;28;20203;-81
2024/01/04 08:46:17;;;;;;;1.13;0.30;;;5.60;99.90;;;;;;5074176;28;20953;-81
2024/01/04 08:48:44;;;;;;;0.30;0.27;;;5.70;99.90;;;;;;5076450;28;20467;-81
2024/01/04 08:51:11;;;;;;;3.60;0.50;;;5.80;99.90;;;;;;5080503;28;20520;-82
2024/01/04 08:53:43;;;;;;;1.20;0.43;;;5.80;99.90;;;;;;5077553;28;20441;-82
2024/01/04 08:56:13;;;;;;;0.30;0.30;;;5.80;99.90;;;;;;5077506;28;20505;-81
2024/01/04 08:58:41;;;;;;;0.40;0.40;;;5.70;99.90;;;;;;5077451;28;20564;-81
2024/01/04 09:01:08;;;;;;;0.70;0.40;;;5.70;99.90;;;;;;5078372;28;20452;-80
2024/01/04 09:03:34;;;;;;;0.30;0.30;;;5.80;99.90;;;;;;5074850;28;20441;-80
2024/01/04 09:06:02;;;;;;;2.93;0.50;;;5.70;99.90;;;;;;5076783;28;20473;-81
2024/01/04 09:08:29;;;;;;;0.40;0.40;;;5.70;99.90;;;;;;5075304;28;20479;-81
2024/01/04 09:10:56;;;;;;;0.30;0.30;;;5.60;99.90;;;;;;5074662;28;20447;-81
2024/01/04 09:13:23;;;;;;;0.30;0.30;;;5.70;99.90;;;;;;5078512;28;20838;-80
2024/01/04 09:15:51;;;;;;;0.30;0.30;;;5.70;99.90;;;;;;5077253;28;20445;-81
2024/01/04 09:18:17;;;;;;;0.30;0.20;;;5.90;99.90;;;;;;5077930;28;20485;-81
2024/01/04 09:20:44;;;;;;;0.53;0.40;;;5.90;99.90;;;;;;5076482;28;20456;-82
2024/01/04 09:23:11;;;;;;;1.37;0.30;;;6.00;99.90;;;;;;5077446;28;20807;-81
2024/01/04 09:25:37;;;;;;;0.30;0.30;;;6.00;99.90;;;;;;5078799;28;20437;-82
2024/01/04 09:28:04;;;;;;;0.30;0.30;;;6.00;99.90;;;;;;5076567;28;20464;-81
2024/01/04 09:30:31;;;;;;;0.30;0.20;;;6.00;99.90;;;;;;5077504;28;20460;-81
2024/01/04 09:33:00;;;;;;;0.93;0.30;;;6.00;99.90;;;;;;5075715;28;20448;-81
2024/01/04 09:35:27;;;;;;;0.30;0.30;;;6.10;99.90;;;;;;5074885;28;20448;-81
2024/01/04 09:37:53;;;;;;;0.50;0.50;;;6.20;99.90;;;;;;5074924;28;20492;-85
2024/01/04 09:40:20;;;;;;;0.40;0.33;;;6.30;99.90;;;;;;5075480;28;20449;-81
2024/01/04 09:42:51;;;;;;;0.30;0.30;;;6.40;99.90;;;;;;5074765;28;20793;-81
2024/01/04 09:45:21;;;;;;;0.30;0.30;;;6.60;99.90;;;;;;5074758;28;20945;-81
2024/01/04 09:47:51;;;;;;;0.40;0.30;;;6.60;99.90;;;;;;5075193;28;20989;-81
2024/01/04 09:50:19;;;;;;;0.80;0.40;;;6.80;99.90;;;;;;5074975;28;20496;-81
2024/01/04 09:52:46;;;;;;;6.23;0.47;;;7.00;99.90;;;;;;5074868;28;20537;-81
2024/01/04 09:55:13;;;;;;;4.23;0.60;;;7.20;99.90;;;;;;5074388;28;20440;-81
2024/01/04 09:57:41;;;;;;;22.63;0.50;;;7.20;99.90;;;;;;5073567;28;20492;-81
2024/01/04 10:00:09;;;;;;;0.33;0.30;;;7.20;99.90;;;;;;5074143;28;20455;-81
2024/01/04 10:02:41;;;;;;;6.10;0.50;;;7.30;99.90;;;;;;5074560;28;20476;-81
2024/01/04 10:05:10;;;;;;;0.80;0.30;;;7.40;99.90;;;;;;5075327;28;20918;-81
2024/01/04 10:07:44;;;;;;;0.33;0.30;;;7.90;99.90;;;;;;5077945;28;20472;-81
2024/01/04 10:10:18;;;;;;;2.23;0.70;;;8.40;99.90;;;;;;5078346;28;20428;-81
2024/01/04 10:12:46;;;;;;;0.40;0.30;;;8.50;99.90;;;;;;5077893;28;20429;-81
2024/01/04 10:15:15;;;;;;;0.60;0.40;;;8.60;99.90;;;;;;5078254;28;20437;-81
2024/01/04 10:17:44;;;;;;;0.67;0.30;;;8.80;99.90;;;;;;5077773;28;20491;-81
2024/01/04 10:20:11;;;;;;;0.30;0.30;;;8.90;99.90;;;;;;5077577;28;20452;-81
2024/01/04 10:22:41;;;;;;;8.40;0.50;;;9.00;99.90;;;;;;5077708;28;20449;-81
2024/01/04 10:25:09;;;;;;;2.23;0.60;;;9.10;99.90;;;;;;5077245;28;20437;-80
2024/01/04 10:27:36;;;;;;;0.30;0.30;;;8.90;99.90;;;;;;5077335;28;20470;-81
2024/01/04 10:30:04;;;;;;;0.97;0.50;;;8.90;99.90;;;;;;5077069;28;21067;-81
2024/01/04 10:32:31;;;;;;;0.30;0.30;;;8.80;99.90;;;;;;5077921;28;20449;-80
2024/01/04 10:35:04;;;;;;;0.30;0.30;;;8.50;99.90;;;;;;5077209;28;20444;-80
2024/01/04 10:37:31;;;;;;;0.30;0.30;;;8.50;99.90;;;;;;5077516;28;20493;-80
2024/01/04 10:40:01;;;;;;;1.23;0.50;;;8.40;99.90;;;;;;5081406;28;20445;-80
2024/01/04 10:42:28;;;;;;;0.40;0.40;;;8.40;99.90;;;;;;5078592;28;20445;-80
2024/01/04 10:44:55;;;;;;;0.30;0.30;;;8.30;99.90;;;;;;5092217;28;20429;-81
2024/01/04 10:47:22;;;;;;;0.80;0.50;;;8.30;99.90;;;;;;5079247;28;20437;-81
2024/01/04 10:49:50;;;;;;;0.40;0.30;;;8.20;99.90;;;;;;5076320;28;20432;-81
2024/01/04 10:52:19;;;;;;;0.73;0.40;;;8.20;99.90;;;;;;5076707;28;20954;-80
2024/01/04 10:54:46;;;;;;;0.40;0.40;;;8.20;99.90;;;;;;5076409;28;20425;-80
2024/01/04 10:57:14;;;;;;;0.30;0.30;;;8.00;99.90;;;;;;5079393;28;20472;-80
2024/01/04 10:59:43;;;;;;;0.40;0.30;;;7.90;99.90;;;;;;5078245;28;20441;-80
2024/01/04 11:02:12;;;;;;;0.80;0.40;;;7.90;99.90;;;;;;5077254;28;20441;-80
2024/01/04 11:04:40;;;;;;;3.50;0.90;;;7.80;99.90;;;;;;5075964;28;20957;-81
2024/01/04 11:07:07;;;;;;;0.40;0.40;;;7.90;99.90;;;;;;5076267;28;20478;-81
2024/01/04 11:09:34;;;;;;;0.40;0.30;;;8.00;99.90;;;;;;5080405;28;20437;-80
2024/01/04 11:12:02;;;;;;;3.17;1.10;;;8.10;99.90;;;;;;5083541;28;20506;-81
2024/01/04 11:14:30;;;;;;;0.87;0.40;;;8.10;99.90;;;;;;5083849;28;20544;-81
2024/01/04 11:17:15;;;;;;;1.80;0.30;;;8.20;99.90;;;;;;5084722;28;20487;-81
2024/01/04 11:19:59;;;;;;;1.13;0.50;;;8.20;99.90;;;;;;5086576;28;20903;-81
2024/01/04 11:22:46;;;;;;;0.73;0.40;;;8.20;99.90;;;;;;5084290;28;20441;-82
2024/01/04 11:25:26;;;;;;;0.30;0.30;;;8.20;99.90;;;;;;5087407;28;20440;-81
2024/01/04 11:27:54;;;;;;;0.60;0.30;;;8.20;99.90;;;;;;5086371;28;20473;-81
2024/01/04 11:30:22;;;;;;;0.30;0.30;;;8.30;99.90;;;;;;5084240;28;20437;-80
2024/01/04 11:32:50;;;;;;;0.40;0.30;;;8.20;99.90;;;;;;5086597;28;20477;-82
2024/01/04 11:35:17;;;;;;;0.77;0.40;;;8.10;99.90;;;;;;5084516;28;20490;-81
2024/01/04 11:37:51;;;;;;;0.40;0.30;;;8.20;99.90;;;;;;5077456;28;20481;-81
2024/01/04 11:40:26;;;;;;;0.40;0.30;;;8.40;99.90;;;;;;5075801;28;20424;-81
2024/01/04 11:42:53;;;;;;;0.30;0.30;;;8.50;99.90;;;;;;5075845;28;20433;-81
2024/01/04 11:45:23;;;;;;;0.67;0.30;;;8.50;99.90;;;;;;5075745;28;20441;-81
2024/01/04 11:47:51;;;;;;;0.50;0.30;;;8.50;99.90;;;;;;5075722;28;20545;-81
2024/01/04 11:50:23;;;;;;;3.30;0.30;;;8.50;99.90;;;;;;5075806;28;20452;-81
2024/01/04 11:52:50;;;;;;;2.67;0.30;;;8.50;99.90;;;;;;5076355;28;20504;-82
2024/01/04 11:55:24;;;;;;;0.47;0.40;;;8.60;99.90;;;;;;5076146;28;20440;-82
2024/01/04 11:57:51;;;;;;;0.33;0.27;;;8.60;99.90;;;;;;5076153;28;20488;-81
2024/01/04 12:00:19;;;;;;;0.40;0.30;;;8.70;99.90;;;;;;5075827;28;20437;-81
2024/01/04 12:02:47;;;;;;;0.63;0.47;;;8.60;99.90;;;;;;5076164;28;20453;-81
2024/01/04 12:05:18;;;;;;;1.00;0.30;;;8.80;99.90;;;;;;5076351;28;20481;-80
2024/01/04 12:07:45;;;;;;;0.33;0.30;;;9.00;99.90;;;;;;5076031;28;20896;-82
2024/01/04 12:10:11;;;;;;;0.50;0.30;;;9.10;99.90;;;;;;5075870;28;20448;-84
2024/01/04 12:12:41;;;;;;;0.40;0.33;;;9.20;99.90;;;;;;5075717;28;20445;-82
2024/01/04 12:15:08;;;;;;;4.87;0.40;;;9.20;99.90;;;;;;5075435;28;20953;-83
2024/01/04 12:17:35;;;;;;;0.50;0.40;;;9.10;99.90;;;;;;5076051;28;20480;-83
2024/01/04 12:20:06;;;;;;;0.40;0.20;;;8.90;99.90;;;;;;5075400;28;20445;-83
2024/01/04 12:22:33;;;;;;;0.40;0.30;;;8.80;99.90;;;;;;5075850;28;20437;-83
2024/01/04 12:25:00;;;;;;;0.30;0.30;;;8.50;99.90;;;;;;5075769;28;20466;-83
2024/01/04 12:27:27;;;;;;;2.87;0.37;;;8.50;99.90;;;;;;5075093;28;20437;-83
2024/01/04 12:29:54;;;;;;;0.37;0.30;;;8.40;99.90;;;;;;5076038;28;20442;-81
2024/01/04 12:32:23;;;;;;;0.37;0.37;;;8.20;99.90;;;;;;5075599;28;20474;-83
2024/01/04 12:34:50;;;;;;;1.47;0.40;;;8.00;99.90;;;;;;5075419;28;20437;-83
2024/01/04 12:37:18;;;;;;;6.33;0.40;;;7.80;99.90;;;;;;5075333;28;20485;-83
2024/01/04 12:39:45;;;;;;;0.30;0.20;;;7.70;99.90;;;;;;5075510;28;20434;-83
2024/01/04 12:42:13;;;;;;;0.30;0.30;;;7.70;99.90;;;;;;5075955;28;20429;-83
2024/01/04 12:44:40;;;;;;;5.70;0.30;;;7.70;99.90;;;;;;5075078;28;20418;-83
2024/01/04 12:47:09;;;;;;;3.90;0.70;;;7.70;99.90;;;;;;5074949;28;20863;-82
2024/01/04 12:49:37;;;;;;;0.40;0.40;;;7.70;99.90;;;;;;5075356;28;20502;-83
2024/01/04 12:52:10;;;;;;;0.53;0.30;;;7.70;99.90;;;;;;5075240;28;20441;-83
2024/01/04 12:54:39;;;;;;;4.03;0.73;;;7.70;99.90;;;;;;5075965;28;20421;-83
2024/01/04 12:57:06;;;;;;;1.50;0.30;;;7.70;99.90;;;;;;5075594;28;20452;-83
2024/01/04 12:59:33;;;;;;;0.43;0.30;;;7.70;99.90;;;;;;5074784;28;20799;-82